Data for 01/10/2009

Time Sea-Level Adjusted Pressure Absolute Pressure Temperature Relative Humidity Dew Point   
(mb) (inHg) (mb) (inHg) (C) (F) (%) (C) (F)
00:05 1026 30.3 855 25.25 -0.4 31.4 48 -10 14.1
00:10 1026 30.3 855 25.25 -0.3 31.6 47 -10.2 13.7
00:15 1026 30.3 855 25.25 -0.1 31.8 48 -10 14
00:20 1026 30.3 855 25.25 -0.2 31.6 48 -10 14
00:25 1026 30.3 855 25.25 -0.2 31.6 50 -9.6 14.8
00:30 1026 30.3 855 25.25 -0.3 31.4 51 -9.3 15.2
00:35 1026 30.3 855 25.25 -0.4 31.3 52 -9.2 15.4
00:40 1026 30.3 855 25.25 -0.4 31.2 51 -9.4 15
00:45 1026 30.3 855 25.25 -0.4 31.2 51 -9.4 15
00:50 1026 30.3 855 25.25 -0.4 31.3 50 -9.5 14.9
00:55 1026 30.3 855 25.25 -0.3 31.5 49 -9.8 14.4
01:00 1026 30.3 855 25.25 0.1 32.3 45 -10.5 13.1
01:05 1026 30.3 855 25.25 0.4 32.8 46 -9.9 14.3
01:10 1026 30.3 855 25.25 0.2 32.4 47 -9.8 14.4
01:15 1026 30.3 855 25.25 -0.1 31.9 49 -9.6 14.8
01:20 1026 30.3 855 25.25 -0.1 31.8 48 -9.8 14.4
01:25 1025 30.27 855 25.25 0.2 32.4 45 -10.2 13.6
01:30 1025 30.27 855 25.25 0.5 32.9 47 -9.6 14.8
01:35 1026 30.3 855 25.25 0.5 32.9 47 -9.5 14.9
01:40 1025 30.27 855 25.25 0.5 32.9 48 -9.4 15.1
01:45 1026 30.3 855 25.25 0.4 32.8 49 -9.2 15.5
01:50 1025 30.27 855 25.25 0.3 32.6 49 -9.1 15.6
01:55 1025 30.27 855 25.25 0.2 32.4 50 -8.9 15.9
02:00 1025 30.27 855 25.25 0.2 32.4 50 -9.1 15.6
02:05 1025 30.27 855 25.25 0.3 32.5 50 -9.1 15.6
02:10 1025 30.27 855 25.25 0.4 32.7 48 -9.5 14.9
02:15 1025 30.27 855 25.25 0.5 32.9 49 -9.1 15.6
02:20 1025 30.27 855 25.25 0.4 32.7 49 -9 15.8
02:25 1025 30.27 855 25.25 0.4 32.7 49 -9.2 15.5
02:30 1025 30.27 854 25.22 0.4 32.7 48 -9.4 15.1
02:35 1025 30.27 855 25.25 0.7 33.2 47 -9.4 15.1
02:40 1025 30.27 855 25.25 0.8 33.5 46 -9.6 14.6
02:45 1026 30.3 855 25.25 1 33.9 45 -9.6 14.7
02:50 1026 30.3 855 25.25 1 33.9 45 -9.6 14.7
02:55 1025 30.27 855 25.25 1.1 33.9 45 -9.5 15
03:00 1025 30.27 855 25.25 1.1 33.9 46 -9.4 15.1
03:05 1025 30.27 855 25.25 1.1 33.9 45 -9.6 14.7
03:10 1025 30.27 855 25.25 1.2 34.1 44 -9.6 14.7
03:15 1025 30.27 854 25.22 1.3 34.3 44 -9.6 14.7
03:20 1025 30.27 854 25.22 1.3 34.4 45 -9.4 15.1
03:25 1025 30.27 854 25.22 1.4 34.6 45 -9.2 15.4
03:30 1025 30.27 854 25.22 1.4 34.6 44 -9.5 14.8
03:35 1025 30.27 854 25.22 1.5 34.7 45 -9.3 15.3
03:40 1025 30.27 854 25.22 1.5 34.7 43 -9.7 14.6
03:45 1025 30.27 854 25.22 1.5 34.8 46 -9 15.8
03:50 1025 30.27 854 25.22 1.4 34.6 44 -9.5 14.9
03:55 1025 30.27 854 25.22 1.6 34.9 45 -9.2 15.4
04:00 1025 30.27 854 25.22 1.5 34.7 45 -9.2 15.5
04:05 1025 30.27 854 25.22 1.4 34.5 46 -9 15.9
04:10 1025 30.27 854 25.22 1.4 34.5 47 -8.8 16.1
04:15 1025 30.27 854 25.22 1.3 34.4 48 -8.4 16.8
04:20 1025 30.27 854 25.22 1.2 34.1 46 -9.2 15.5
04:25 1025 30.27 854 25.22 1.4 34.5 47 -8.7 16.3
04:30 1025 30.27 854 25.22 1.3 34.4 47 -8.9 16
04:35 1025 30.27 854 25.22 1.5 34.6 46 -9 15.7
04:40 1025 30.27 854 25.22 1.6 34.8 46 -8.9 15.9
04:45 1025 30.27 854 25.22 1.6 34.8 46 -8.9 15.9
04:50 1025 30.27 854 25.22 1.6 34.9 45 -9 15.9
04:55 1025 30.27 854 25.22 1.6 34.9 46 -8.7 16.3
05:00 1025 30.27 854 25.22 1.6 34.9 45 -9 15.8
05:05 1025 30.27 854 25.22 1.8 35.3 44 -9.2 15.4
05:10 1025 30.27 854 25.22 1.9 35.4 44 -9.2 15.4
05:15 1025 30.27 854 25.22 1.9 35.4 45 -8.7 16.3
05:20 1025 30.27 854 25.22 1.7 35.1 44 -9.1 15.6
05:25 1025 30.27 854 25.22 1.7 35.1 44 -9.2 15.5
05:30 1025 30.27 854 25.22 1.8 35.2 45 -8.9 15.9
05:35 1025 30.27 855 25.25 1.7 35 46 -8.8 16.2
05:40 1025 30.27 855 25.25 1.6 34.8 47 -8.6 16.6
05:45 1025 30.27 855 25.25 1.6 34.8 47 -8.7 16.4
05:50 1025 30.27 855 25.25 1.6 34.8 46 -8.9 16
05:55 1025 30.27 854 25.22 1.6 34.9 46 -8.8 16.2
06:00 1025 30.27 854 25.22 1.6 34.8 47 -8.7 16.4
06:05 1025 30.27 854 25.22 1.5 34.8 47 -8.7 16.3
06:10 1025 30.27 854 25.22 1.6 34.9 46 -8.8 16.1
06:15 1025 30.27 854 25.22 1.8 35.2 45 -8.9 15.9
06:20 1025 30.27 854 25.22 1.9 35.4 44 -9 15.7
06:25 1025 30.27 854 25.22 1.9 35.4 43 -9.3 15.3
06:30 1025 30.27 854 25.22 2 35.5 43 -9.2 15.4
06:35 1025 30.27 854 25.22 2 35.6 45 -8.8 16.2
06:40 1025 30.27 854 25.22 1.9 35.4 45 -8.9 16
06:45 1025 30.27 854 25.22 1.9 35.4 45 -8.8 16.2
06:50 1025 30.27 854 25.22 1.9 35.4 45 -8.9 16
06:55 1025 30.27 855 25.25 2 35.6 43 -9.2 15.4
07:00 1025 30.27 855 25.25 2.2 35.9 43 -9.1 15.6
07:05 1025 30.27 855 25.25 2.2 36 44 -8.8 16.2
07:10 1025 30.27 855 25.25 2 35.7 47 -8.2 17.3
07:15 1025 30.27 855 25.25 1.8 35.3 48 -8.1 17.4
07:20 1026 30.3 855 25.25 1.7 35.1 48 -8.2 17.2
07:25 1025 30.27 855 25.25 1.8 35.2 45 -9.1 15.7
07:30 1026 30.3 855 25.25 2 35.6 44 -8.9 16
07:35 1026 30.3 855 25.25 2 35.6 46 -8.5 16.6
07:40 1026 30.3 855 25.25 1.9 35.5 46 -8.5 16.8
07:45 1026 30.3 855 25.25 1.9 35.4 48 -8 17.6
07:50 1025 30.27 855 25.25 1.7 35 50 -7.8 18
07:55 1025 30.27 855 25.25 1.5 34.7 50 -7.9 17.9
08:00 1026 30.3 855 25.25 1.4 34.6 51 -7.7 18.1
08:05 1026 30.3 855 25.25 1.4 34.6 50 -8 17.6
08:10 1026 30.3 855 25.25 1.5 34.7 51 -7.5 18.5
08:15 1026 30.3 855 25.25 1.5 34.6 51 -7.5 18.5
08:20 1026 30.3 855 25.25 1.5 34.6 50 -8 17.7
08:25 1026 30.3 855 25.25 1.5 34.8 48 -8.2 17.3
08:30 1026 30.3 855 25.25 1.7 35 47 -8.4 16.8
08:35 1026 30.3 855 25.25 1.8 35.2 48 -8.2 17.3
08:40 1026 30.3 855 25.25 1.7 35.1 48 -8 17.6
08:45 1026 30.3 855 25.25 1.6 34.9 50 -7.8 18
08:50 1026 30.3 855 25.25 1.5 34.7 51 -7.6 18.4
08:55 1026 30.3 855 25.25 1.5 34.6 49 -8 17.5
09:00 1026 30.3 855 25.25 1.7 35 49 -8 17.5
09:05 1026 30.3 855 25.25 1.7 35 49 -7.8 17.9
09:10 1026 30.3 855 25.25 1.7 35 50 -7.7 18.1
09:15 1026 30.3 855 25.25 1.6 34.9 50 -7.7 18.2
09:20 1026 30.3 855 25.25 1.7 35 51 -7.5 18.5
09:25 1026 30.3 855 25.25 1.7 35.1 50 -7.7 18.2
09:30 1026 30.3 855 25.25 1.9 35.3 48 -8 17.6
09:35 1026 30.3 855 25.25 2.1 35.8 46 -8.3 17
09:40 1026 30.3 855 25.25 2.4 36.3 44 -8.6 16.6
09:45 1026 30.3 855 25.25 2.5 36.6 45 -8.3 17.1
09:50 1026 30.3 855 25.25 2.6 36.7 44 -8.3 17
09:55 1026 30.3 855 25.25 2.6 36.7 45 -8.2 17.2
10:00 1026 30.3 855 25.25 2.6 36.7 45 -8.3 17.1
10:05 1026 30.3 855 25.25 2.6 36.6 44 -8.6 16.5
10:10 1026 30.3 855 25.25 2.6 36.7 43 -8.7 16.4
10:15 1026 30.3 855 25.25 2.6 36.7 44 -8.6 16.6
10:20 1026 30.3 855 25.25 2.6 36.7 45 -8.2 17.2
10:25 1026 30.3 855 25.25 2.5 36.4 45 -8.3 17.1
10:30 1026 30.3 855 25.25 2.5 36.4 45 -8.2 17.3
10:35 1026 30.3 855 25.25 2.6 36.7 45 -8.3 17.1
10:40 1026 30.3 855 25.25 2.7 36.8 45 -8.1 17.4
10:45 1026 30.3 855 25.25 2.7 36.9 43 -8.7 16.3
10:50 1026 30.3 855 25.25 2.7 36.9 43 -8.5 16.6
10:55 1026 30.3 855 25.25 2.7 36.9 44 -8.4 16.8
11:00 1026 30.3 855 25.25 2.8 37 44 -8.2 17.3
11:05 1026 30.3 855 25.25 2.7 36.8 44 -8.5 16.7
11:10 1026 30.3 855 25.25 2.7 36.9 45 -8.2 17.2
11:15 1026 30.3 855 25.25 2.7 36.9 45 -8.1 17.5
11:20 1026 30.3 855 25.25 2.7 36.8 43 -8.6 16.6
11:25 1026 30.3 855 25.25 2.9 37.2 43 -8.5 16.7
11:30 1025 30.27 855 25.25 2.9 37.2 41 -9 15.9
11:35 1025 30.27 855 25.25 2.9 37.2 43 -8.5 16.6
11:40 1025 30.27 854 25.22 3 37.4 43 -8.5 16.7
11:45 1025 30.27 854 25.22 3.1 37.6 44 -8.1 17.4
11:50 1025 30.27 854 25.22 3.2 37.7 43 -8.3 17.1
11:55 1025 30.27 854 25.22 3.3 37.9 43 -8.1 17.4
12:00 1025 30.27 854 25.22 3.3 37.9 41 -8.7 16.4
12:05 1025 30.27 854 25.22 3.3 37.9 43 -8.1 17.4
12:10 1025 30.27 854 25.22 3.3 38 42 -8.4 16.8
12:15 1025 30.27 855 25.25 3.3 38 43 -8 17.6
12:20 1026 30.3 855 25.25 3.4 38.1 46 -7.3 18.9
12:25 1026 30.3 855 25.25 3.4 38.2 44 -7.6 18.3
12:30 1026 30.3 855 25.25 3.4 38.2 45 -7.4 18.7
12:35 1026 30.3 855 25.25 3.1 37.6 45 -7.6 18.3
12:40 1026 30.3 855 25.25 2.9 37.2 46 -7.6 18.3
12:45 1026 30.3 855 25.25 3.1 37.6 45 -7.6 18.3
12:50 1026 30.3 855 25.25 3.3 37.9 45 -7.6 18.4
12:55 1026 30.3 855 25.25 3.3 37.9 44 -7.8 18
13:00 1026 30.3 855 25.25 3.3 38 44 -7.8 17.9
13:05 1026 30.3 855 25.25 3.3 37.9 43 -8.1 17.4
13:10 1026 30.3 855 25.25 3.3 38 42 -8.2 17.2
13:15 1026 30.3 855 25.25 3.5 38.3 43 -8 17.6
13:20 1025 30.27 855 25.25 3.4 38.1 44 -7.9 17.9
13:25 1025 30.27 855 25.25 3.4 38.2 45 -7.3 18.8
13:30 1026 30.3 855 25.25 3.5 38.3 45 -7.4 18.8
13:35 1026 30.3 855 25.25 3.7 38.6 43 -7.8 18
13:40 1026 30.3 855 25.25 3.4 38.1 44 -7.9 17.9
13:45 1026 30.3 855 25.25 3.2 37.7 45 -7.7 18.1
13:50 1026 30.3 855 25.25 3.3 37.9 45 -7.4 18.6
13:55 1026 30.3 855 25.25 3.4 38.1 45 -7.4 18.6
14:00 1026 30.3 855 25.25 3.3 38 47 -6.9 19.6
14:05 1026 30.3 855 25.25 3.3 38 46 -7.2 19.1
14:10 1026 30.3 855 25.25 3.3 37.9 46 -7.2 19.1
14:15 1026 30.3 855 25.25 3.3 38 47 -7 19.3
14:20 1026 30.3 855 25.25 3.3 38 46 -7.1 19.2
14:25 1026 30.3 855 25.25 3.3 38 47 -6.9 19.7
14:30 1026 30.3 855 25.25 3.3 37.9 49 -6.5 20.3
14:35 1026 30.3 855 25.25 3.3 37.9 49 -6.5 20.2
14:40 1026 30.3 855 25.25 3.2 37.8 50 -6.3 20.6
14:45 1026 30.3 855 25.25 3.2 37.8 49 -6.6 20.1
14:50 1026 30.3 855 25.25 3.2 37.7 48 -6.8 19.8
14:55 1026 30.3 855 25.25 3 37.3 49 -6.8 19.7
15:00 1026 30.3 855 25.25 3 37.4 48 -6.9 19.5
15:05 1026 30.3 855 25.25 3.2 37.7 49 -6.6 20.2
15:10 1026 30.3 855 25.25 3.1 37.6 49 -6.6 20.2
15:15 1026 30.3 855 25.25 3 37.4 51 -6.2 20.8
15:20 1026 30.3 855 25.25 3 37.3 52 -6 21.2
15:25 1026 30.3 855 25.25 2.9 37.2 52 -6 21.3
15:30 1026 30.3 855 25.25 2.9 37.3 53 -5.8 21.5
15:35 1026 30.3 855 25.25 2.9 37.2 53 -5.6 21.8
15:40 1026 30.3 855 25.25 2.9 37.2 53 -5.6 21.9
15:45 1026 30.3 855 25.25 2.9 37.2 56 -5 23
15:50 1026 30.3 855 25.25 3 37.4 55 -5.2 22.6
15:55 1026 30.3 855 25.25 3.1 37.5 55 -5.2 22.7
16:00 1026 30.3 855 25.25 3.1 37.6 54 -5.4 22.3
16:05 1026 30.3 855 25.25 3.2 37.8 55 -5 23
16:10 1026 30.3 855 25.25 3.3 37.9 54 -5.1 22.9
16:15 1026 30.3 855 25.25 3.3 37.9 54 -5.1 22.9
16:20 1026 30.3 855 25.25 3.2 37.8 55 -5.1 22.9
16:25 1026 30.3 855 25.25 3.1 37.6 55 -5.1 22.7
16:30 1026 30.3 855 25.25 3.1 37.6 54 -5.3 22.5
16:35 1026 30.3 855 25.25 3 37.4 55 -5.2 22.6
16:40 1026 30.3 855 25.25 3 37.3 55 -5.2 22.6
16:45 1026 30.3 855 25.25 2.9 37.3 54 -5.5 22.2
16:50 1026 30.3 855 25.25 2.9 37.3 55 -5.3 22.4
16:55 1026 30.3 855 25.25 2.9 37.3 56 -5.1 22.8
17:00 1026 30.3 855 25.25 2.8 37.1 57 -4.7 23.5
17:05 1026 30.3 855 25.25 2.7 36.9 57 -4.8 23.3
17:10 1026 30.3 855 25.25 2.7 36.9 57 -5.1 22.9
17:15 1026 30.3 855 25.25 2.8 37 57 -4.8 23.3
17:20 1026 30.3 855 25.25 2.8 37 57 -4.9 23.2
17:25 1026 30.3 855 25.25 2.8 37.1 56 -5.1 22.9
17:30 1026 30.3 855 25.25 2.9 37.2 57 -4.8 23.3
17:35 1026 30.3 855 25.25 2.6 36.7 56 -5.4 22.3
17:40 1026 30.3 855 25.25 2.7 36.9 53 -5.9 21.4
17:45 1026 30.3 855 25.25 2.9 37.1 54 -5.6 21.9
17:50 1026 30.3 855 25.25 2.9 37.3 53 -5.7 21.8
17:55 1026 30.3 855 25.25 2.9 37.3 54 -5.5 22.1
18:00 1026 30.3 855 25.25 2.9 37.2 52 -5.9 21.3
18:05 1026 30.3 855 25.25 3 37.4 52 -6 21.3
18:10 1026 30.3 855 25.25 2.9 37.3 53 -5.8 21.5
18:15 1026 30.3 855 25.25 2.9 37.3 52 -6 21.3
18:20 1026 30.3 855 25.25 2.9 37.2 53 -5.8 21.6
18:25 1026 30.3 855 25.25 2.8 37.1 53 -5.9 21.4
18:30 1026 30.3 855 25.25 2.8 37.1 54 -5.6 21.9
18:35 1026 30.3 855 25.25 2.8 37 54 -5.7 21.7
18:40 1026 30.3 855 25.25 2.8 37 55 -5.4 22.2
18:45 1026 30.3 855 25.25 2.6 36.7 55 -5.4 22.3
18:50 1026 30.3 855 25.25 2.6 36.6 56 -5.3 22.5
18:55 1026 30.3 855 25.25 2.5 36.5 56 -5.5 22.1
19:00 1026 30.3 855 25.25 2.5 36.6 56 -5.4 22.3
19:05 1026 30.3 855 25.25 2.5 36.5 56 -5.3 22.4
19:10 1026 30.3 855 25.25 2.5 36.5 55 -5.5 22
19:15 1026 30.3 855 25.25 2.5 36.6 56 -5.4 22.4
19:20 1026 30.3 855 25.25 2.4 36.3 57 -5.2 22.6
19:25 1026 30.3 855 25.25 2.2 36 58 -5.1 22.8
19:30 1026 30.3 855 25.25 2.1 35.7 60 -5 23.1
19:35 1026 30.3 855 25.25 2 35.6 59 -5.1 22.9
19:40 1026 30.3 855 25.25 2.1 35.7 57 -5.6 22
19:45 1026 30.3 855 25.25 2.4 36.2 56 -5.5 22
19:50 1026 30.3 855 25.25 2.3 36.2 57 -5.3 22.5
19:55 1026 30.3 855 25.25 2.2 36 58 -5.1 22.8
20:00 1026 30.3 855 25.25 2 35.7 60 -5 23
20:05 1026 30.3 855 25.25 1.9 35.4 60 -5.1 22.9
20:10 1026 30.3 855 25.25 1.8 35.2 60 -5.1 22.7
20:15 1026 30.3 855 25.25 1.7 35.1 60 -5.2 22.6
20:20 1026 30.3 855 25.25 1.7 35.1 59 -5.4 22.2
20:25 1026 30.3 855 25.25 1.8 35.3 60 -5.1 22.9
20:30 1026 30.3 856 25.28 1.7 35.1 60 -5.1 22.7
20:35 1026 30.3 855 25.25 1.7 35 61 -5 22.9
20:40 1026 30.3 855 25.25 1.5 34.8 63 -4.8 23.3
20:45 1026 30.3 855 25.25 1.5 34.6 63 -4.9 23.2
20:50 1026 30.3 855 25.25 1.4 34.5 63 -4.9 23.1
20:55 1026 30.3 855 25.25 1.4 34.5 62 -5.1 22.8
21:00 1026 30.3 855 25.25 1.5 34.7 62 -5.1 22.9
21:05 1026 30.3 855 25.25 1.5 34.7 62 -5.1 22.9
21:10 1026 30.3 855 25.25 1.5 34.7 62 -5 23.1
21:15 1026 30.3 855 25.25 1.4 34.5 62 -5.1 22.7
21:20 1026 30.3 855 25.25 1.5 34.7 62 -5 23
21:25 1026 30.3 856 25.28 1.5 34.6 62 -5 23
21:30 1026 30.3 856 25.28 1.5 34.6 62 -5 22.9
21:35 1026 30.3 855 25.25 1.5 34.6 62 -5 23
21:40 1026 30.3 855 25.25 1.5 34.6 62 -5 23
21:45 1026 30.3 855 25.25 1.5 34.6 62 -5.1 22.8
21:50 1026 30.3 855 25.25 1.5 34.7 61 -5.2 22.7
21:55 1026 30.3 855 25.25 1.5 34.6 61 -5.3 22.4
22:00 1026 30.3 855 25.25 1.4 34.6 59 -5.6 21.9
22:05 1026 30.3 856 25.28 1.5 34.8 59 -5.6 21.9
22:10 1027 30.33 856 25.28 1.6 34.9 60 -5.4 22.4
22:15 1027 30.33 856 25.28 1.6 34.9 60 -5.4 22.3
22:20 1027 30.33 856 25.28 1.6 35 59 -5.4 22.2
22:25 1027 30.33 856 25.28 1.6 34.9 60 -5.2 22.6
22:30 1027 30.33 856 25.28 1.5 34.8 61 -5.1 22.8
22:35 1026 30.3 856 25.28 1.4 34.6 62 -5.1 22.9
22:40 1026 30.3 856 25.28 1.4 34.5 62 -5.1 22.8
22:45 1026 30.3 856 25.28 1.3 34.3 62 -5.1 22.8
22:50 1026 30.3 856 25.28 1.2 34.2 63 -5.1 22.8
22:55 1026 30.3 855 25.25 1.1 34.1 63 -5.1 22.8
23:00 1026 30.3 855 25.25 1.1 34 63 -5.2 22.6
23:05 1026 30.3 856 25.28 1.1 34 63 -5.3 22.5
23:10 1026 30.3 856 25.28 1.2 34.1 62 -5.3 22.5
23:15 1026 30.3 856 25.28 1.2 34.1 62 -5.3 22.5
23:20 1026 30.3 855 25.25 1.1 34 63 -5.2 22.7
23:25 1026 30.3 855 25.25 1 33.9 63 -5.2 22.6
23:30 1026 30.3 855 25.25 1 33.8 63 -5.2 22.6
23:35 1026 30.3 855 25.25 1 33.9 62 -5.4 22.2
23:40 1026 30.3 855 25.25 1.1 34 62 -5.4 22.2
23:45 1026 30.3 855 25.25 1.1 34 62 -5.3 22.4
23:50 1026 30.3 855 25.25 1.1 33.9 63 -5.3 22.5
23:55 1026 30.3 855 25.25 1 33.7 62 -5.4 22.2
24:00 1026 30.3 855 25.25 1.1 33.9 61 -5.6 22